createdAt,value
2018-12-23T00:00:53.670Z,6.00
2018-12-23T00:03:22.322Z,6.00
2018-12-23T00:05:50.653Z,6.10
2018-12-23T00:08:19.113Z,6.10
2018-12-23T00:10:47.430Z,6.10
2018-12-23T00:13:15.736Z,6.10
2018-12-23T00:15:44.379Z,6.10
2018-12-23T00:18:13.447Z,6.10
2018-12-23T00:20:41.826Z,6.20
2018-12-23T00:23:10.631Z,6.20
2018-12-23T00:25:38.969Z,6.10
2018-12-23T00:28:07.410Z,6.10
2018-12-23T00:30:35.782Z,6.00
2018-12-23T00:33:04.061Z,6.10
2018-12-23T00:35:32.358Z,6.10
2018-12-23T00:38:00.738Z,6.00
2018-12-23T00:40:29.067Z,6.10
2018-12-23T00:42:57.429Z,6.10
2018-12-23T00:45:25.713Z,6.10
2018-12-23T00:47:54.132Z,6.10
2018-12-23T00:50:22.635Z,6.10
2018-12-23T00:52:51.028Z,6.10
2018-12-23T00:55:19.442Z,6.00
2018-12-23T00:57:47.800Z,6.00
2018-12-23T01:00:16.204Z,6.00
2018-12-23T01:02:44.910Z,6.00
2018-12-23T01:05:13.947Z,6.10
2018-12-23T01:07:42.395Z,6.00
2018-12-23T01:10:11.522Z,6.00
2018-12-23T01:12:39.797Z,6.10
2018-12-23T01:15:08.424Z,6.00
2018-12-23T01:17:36.748Z,6.00
2018-12-23T01:20:06.108Z,5.90
2018-12-23T01:22:34.442Z,5.90
2018-12-23T01:25:02.864Z,5.90
2018-12-23T01:27:31.725Z,5.80
2018-12-23T01:30:00.268Z,5.90
2018-12-23T01:32:29.047Z,5.90
2018-12-23T01:35:43.344Z,5.90
2018-12-23T01:38:24.289Z,5.90
2018-12-23T01:41:05.287Z,5.90
2018-12-23T01:43:46.579Z,5.80
2018-12-23T01:46:28.170Z,5.80
2018-12-23T01:49:09.913Z,5.70
2018-12-23T01:51:51.015Z,5.70
2018-12-23T01:54:31.826Z,5.60
2018-12-23T01:57:12.771Z,5.60
2018-12-23T01:59:54.511Z,5.60
2018-12-23T02:02:35.439Z,5.60
2018-12-23T02:05:16.623Z,5.60
2018-12-23T02:07:57.620Z,5.70
2018-12-23T02:10:39.274Z,5.70
2018-12-23T02:13:20.905Z,5.70
2018-12-23T02:16:02.078Z,5.60
2018-12-23T02:18:43.619Z,5.60
2018-12-23T02:21:24.638Z,5.60
2018-12-23T02:24:05.598Z,5.60
2018-12-23T02:26:46.726Z,5.60
2018-12-23T02:29:27.669Z,5.60
2018-12-23T02:32:08.520Z,5.60
2018-12-23T02:34:49.347Z,5.60
2018-12-23T02:37:30.937Z,5.60
2018-12-23T02:40:12.718Z,5.60
2018-12-23T02:42:53.595Z,5.60
2018-12-23T02:45:34.531Z,5.50
2018-12-23T02:48:15.407Z,5.60
2018-12-23T02:50:56.225Z,5.50
2018-12-23T02:53:37.292Z,5.60
2018-12-23T02:56:18.343Z,5.50
2018-12-23T02:58:59.306Z,5.50
2018-12-23T03:01:40.251Z,5.60
2018-12-23T03:04:21.127Z,5.50
2018-12-23T03:07:01.943Z,5.60
2018-12-23T03:09:42.654Z,5.60
2018-12-23T03:12:23.972Z,5.60
2018-12-23T03:15:05.428Z,5.60
2018-12-23T03:17:46.940Z,5.60
2018-12-23T03:20:27.823Z,5.70
2018-12-23T03:23:08.727Z,5.60
2018-12-23T03:25:49.739Z,5.70
2018-12-23T03:28:30.743Z,5.70
2018-12-23T03:31:11.796Z,5.70
2018-12-23T03:33:53.008Z,5.60
2018-12-23T03:36:33.952Z,5.70
2018-12-23T03:39:16.050Z,5.70
2018-12-23T03:41:57.321Z,5.70
2018-12-23T03:44:38.371Z,5.70
2018-12-23T03:47:19.482Z,5.70
2018-12-23T03:50:00.370Z,5.70
2018-12-23T03:52:42.148Z,5.70
2018-12-23T03:55:23.489Z,5.80
2018-12-23T03:58:04.669Z,5.80
2018-12-23T04:00:45.469Z,5.80
2018-12-23T04:03:26.244Z,5.80
2018-12-23T04:06:07.191Z,5.80
2018-12-23T04:08:48.896Z,5.80
2018-12-23T04:11:29.589Z,5.80
2018-12-23T04:14:11.090Z,5.80
2018-12-23T04:16:52.345Z,5.80
2018-12-23T04:19:33.767Z,5.80
2018-12-23T04:22:14.862Z,5.80
2018-12-23T04:24:55.851Z,5.90
2018-12-23T04:27:36.627Z,5.90
2018-12-23T04:30:17.427Z,5.80
2018-12-23T04:32:58.385Z,5.90
2018-12-23T04:35:39.574Z,5.90
2018-12-23T04:38:20.352Z,5.90
2018-12-23T04:41:01.626Z,5.90
2018-12-23T04:43:42.919Z,5.90
2018-12-23T04:46:24.146Z,6.00
2018-12-23T04:49:05.276Z,5.90
2018-12-23T04:51:46.957Z,5.90
2018-12-23T04:54:28.719Z,5.90
2018-12-23T04:57:10.366Z,5.90
2018-12-23T04:59:51.819Z,5.90
2018-12-23T05:02:32.665Z,5.90
2018-12-23T05:05:13.838Z,5.90
2018-12-23T05:07:54.660Z,5.90
2018-12-23T05:10:35.778Z,5.90
2018-12-23T05:13:16.602Z,5.90
2018-12-23T05:15:58.312Z,5.90
2018-12-23T05:18:39.613Z,5.90
2018-12-23T05:21:20.470Z,5.90
2018-12-23T05:24:01.279Z,5.90
2018-12-23T05:26:42.359Z,6.00
2018-12-23T05:29:23.576Z,5.90
2018-12-23T05:32:04.608Z,5.90
2018-12-23T05:34:45.460Z,5.90
2018-12-23T05:37:26.728Z,5.90
2018-12-23T05:40:08.427Z,5.90
2018-12-23T05:42:49.511Z,5.90
2018-12-23T05:45:30.627Z,6.00
2018-12-23T05:48:12.091Z,5.90
2018-12-23T05:50:53.548Z,6.00
2018-12-23T05:53:34.456Z,6.00
2018-12-23T05:56:15.367Z,6.00
2018-12-23T05:58:56.564Z,6.00
2018-12-23T06:01:37.524Z,6.00
2018-12-23T06:04:18.656Z,6.10
2018-12-23T06:07:01.019Z,6.10
2018-12-23T06:09:42.281Z,6.10
2018-12-23T06:12:23.090Z,6.10
2018-12-23T06:15:04.156Z,6.20
2018-12-23T06:17:45.026Z,6.20
2018-12-23T06:20:26.729Z,6.20
2018-12-23T06:23:08.177Z,6.20
2018-12-23T06:25:49.072Z,6.30
2018-12-23T06:28:30.430Z,6.30
2018-12-23T06:31:11.655Z,6.30
2018-12-23T06:33:52.875Z,6.40
2018-12-23T06:36:34.559Z,6.40
2018-12-23T06:39:15.626Z,6.40
2018-12-23T06:41:57.050Z,6.40
2018-12-23T06:44:38.114Z,6.40
2018-12-23T06:47:19.031Z,6.50
2018-12-23T06:50:00.279Z,6.50
2018-12-23T06:52:41.789Z,6.50
2018-12-23T06:55:23.168Z,6.50
2018-12-23T06:58:04.504Z,6.50
2018-12-23T07:00:45.611Z,6.50
2018-12-23T07:03:26.953Z,6.50
2018-12-23T07:06:08.545Z,6.60
2018-12-23T07:08:49.615Z,6.50
2018-12-23T07:11:31.400Z,6.60
2018-12-23T07:14:12.830Z,6.60
2018-12-23T07:16:53.734Z,6.60
2018-12-23T07:19:34.990Z,6.60
2018-12-23T07:22:15.811Z,6.60
2018-12-23T07:24:57.103Z,6.70
2018-12-23T07:27:38.820Z,6.60
2018-12-23T07:30:19.871Z,6.70
2018-12-23T07:33:00.984Z,6.70
2018-12-23T07:35:41.861Z,6.60
2018-12-23T07:38:22.739Z,6.70
2018-12-23T07:41:03.627Z,6.70
2018-12-23T07:43:44.556Z,6.80
2018-12-23T07:46:25.472Z,6.80
2018-12-23T07:49:06.384Z,6.80
2018-12-23T07:51:47.594Z,6.80
2018-12-23T07:54:28.574Z,6.80
2018-12-23T07:57:09.694Z,6.80
2018-12-23T07:59:51.337Z,6.80
2018-12-23T08:02:32.767Z,6.90
2018-12-23T08:05:14.120Z,6.90
2018-12-23T08:07:55.061Z,6.90
2018-12-23T08:10:35.949Z,6.90
2018-12-23T08:13:17.041Z,6.90
2018-12-23T08:15:57.931Z,6.90
2018-12-23T08:18:39.461Z,6.90
2018-12-23T08:21:20.386Z,6.90
2018-12-23T08:24:01.814Z,6.90
2018-12-23T08:26:43.264Z,7.00
2018-12-23T08:29:24.113Z,6.90
2018-12-23T08:32:05.239Z,7.00
2018-12-23T08:34:46.058Z,7.00
2018-12-23T08:37:26.926Z,7.00
2018-12-23T08:40:07.841Z,7.00
2018-12-23T08:42:48.926Z,7.00
2018-12-23T08:45:30.567Z,7.00
2018-12-23T08:48:11.995Z,7.10
2018-12-23T08:50:52.932Z,7.10
2018-12-23T08:53:34.051Z,7.10
2018-12-23T08:56:15.010Z,7.20
2018-12-23T08:58:56.613Z,7.20
2018-12-23T09:01:37.781Z,7.20
2018-12-23T09:04:18.835Z,7.20
2018-12-23T09:07:00.313Z,7.20
2018-12-23T09:09:41.412Z,7.30
2018-12-23T09:12:22.965Z,7.30
2018-12-23T09:15:04.032Z,7.30
2018-12-23T09:17:45.115Z,7.40
2018-12-23T09:20:26.255Z,7.40
2018-12-23T09:23:06.965Z,7.40
2018-12-23T09:25:48.095Z,7.40
2018-12-23T09:28:29.339Z,7.40
2018-12-23T09:31:11.070Z,7.40
2018-12-23T09:33:52.680Z,7.40
2018-12-23T09:36:33.817Z,7.40
2018-12-23T09:39:14.942Z,7.50
2018-12-23T09:41:56.627Z,7.60
2018-12-23T09:44:38.358Z,7.60
2018-12-23T09:47:19.297Z,7.60
2018-12-23T09:50:00.393Z,7.70
2018-12-23T09:52:41.398Z,7.70
2018-12-23T09:55:22.617Z,7.80
2018-12-23T09:58:03.486Z,7.70
2018-12-23T10:00:44.337Z,7.70
2018-12-23T10:03:25.822Z,7.70
2018-12-23T10:06:07.254Z,7.70
2018-12-23T10:08:48.975Z,7.70
2018-12-23T10:11:29.714Z,7.70
2018-12-23T10:14:10.947Z,7.70
2018-12-23T10:16:52.017Z,7.60
2018-12-23T10:19:33.777Z,7.60
2018-12-23T10:22:15.216Z,7.70
2018-12-23T10:24:56.152Z,7.70
2018-12-23T10:27:37.053Z,7.80
2018-12-23T10:33:01.678Z,7.90
2018-12-23T10:35:42.487Z,7.90
2018-12-23T10:38:23.375Z,7.90
2018-12-23T10:41:04.374Z,7.90
2018-12-23T10:43:45.430Z,7.90
2018-12-23T10:46:26.527Z,8.00
2018-12-23T10:49:07.359Z,8.00
2018-12-23T10:51:48.267Z,8.00
2018-12-23T10:54:29.209Z,7.90
2018-12-23T10:57:10.095Z,8.00
2018-12-23T10:59:51.051Z,8.00
2018-12-23T11:02:32.723Z,8.00
2018-12-23T11:05:13.906Z,8.00
2018-12-23T11:07:55.661Z,8.00
2018-12-23T11:10:37.366Z,8.10
2018-12-23T11:13:18.286Z,8.10
2018-12-23T11:15:59.289Z,8.10
2018-12-23T11:18:40.345Z,8.10
2018-12-23T11:21:21.618Z,8.20
2018-12-23T11:24:03.366Z,8.20
2018-12-23T11:26:44.698Z,8.30
2018-12-23T11:29:26.475Z,8.40
2018-12-23T11:32:08.064Z,8.40
2018-12-23T11:34:49.049Z,8.50
2018-12-23T11:37:29.981Z,8.50
2018-12-23T11:40:11.667Z,8.50
2018-12-23T11:42:53.361Z,8.50
2018-12-23T11:45:35.002Z,8.40
2018-12-23T11:48:15.878Z,8.40
2018-12-23T11:50:56.739Z,8.30
2018-12-23T11:53:37.708Z,8.30
2018-12-23T11:56:19.455Z,8.30
2018-12-23T11:59:01.107Z,8.20
2018-12-23T12:01:43.030Z,8.20
2018-12-23T12:04:24.709Z,8.20
2018-12-23T12:07:06.014Z,8.10
2018-12-23T12:09:46.996Z,8.10
2018-12-23T12:12:27.883Z,8.10
2018-12-23T12:15:09.098Z,8.10
2018-12-23T12:17:50.588Z,8.10
2018-12-23T12:20:31.865Z,7.90
2018-12-23T12:23:12.746Z,8.00
2018-12-23T12:25:53.864Z,8.00
2018-12-23T12:28:35.190Z,8.00
2018-12-23T12:31:15.923Z,8.00
2018-12-23T12:33:57.346Z,8.00
2018-12-23T12:36:38.329Z,8.00
2018-12-23T12:39:19.255Z,7.90
2018-12-23T12:42:00.268Z,7.80
2018-12-23T12:44:41.866Z,7.80
2018-12-23T12:47:23.239Z,7.80
2018-12-23T12:50:04.347Z,7.70
2018-12-23T12:52:45.539Z,7.60
2018-12-23T12:55:26.590Z,7.50
2018-12-23T12:58:07.502Z,7.50
2018-12-23T13:00:49.164Z,7.40
2018-12-23T13:03:30.368Z,7.30
2018-12-23T13:06:11.428Z,7.00
2018-12-23T13:09:00.288Z,6.60
2018-12-23T13:11:35.266Z,6.40
2018-12-23T13:14:16.114Z,6.30
2018-12-23T13:16:56.933Z,6.20
2018-12-23T13:19:39.635Z,6.20
2018-12-23T13:22:20.421Z,6.10
2018-12-23T13:25:01.916Z,6.10
2018-12-23T13:27:43.395Z,6.10
2018-12-23T13:30:25.295Z,6.20
2018-12-23T13:33:06.225Z,6.20
2018-12-23T13:35:47.635Z,6.30
2018-12-23T13:38:28.495Z,6.30
2018-12-23T13:41:09.650Z,6.30
2018-12-23T13:43:51.431Z,6.40
2018-12-23T13:46:32.747Z,6.50
2018-12-23T13:49:13.524Z,6.40
2018-12-23T13:51:54.247Z,6.50
2018-12-23T13:54:35.321Z,6.50
2018-12-23T13:57:16.250Z,6.50
2018-12-23T13:59:57.633Z,6.60
2018-12-23T14:02:39.331Z,6.70
2018-12-23T14:05:20.637Z,6.70
2018-12-23T14:08:01.706Z,6.70
2018-12-23T14:10:42.668Z,6.70
2018-12-23T14:13:24.367Z,6.70
2018-12-23T14:16:05.547Z,6.70
2018-12-23T14:18:46.371Z,6.80
2018-12-23T14:21:27.278Z,6.80
2018-12-23T14:24:08.347Z,6.80
2018-12-23T14:26:49.746Z,6.80
2018-12-23T14:29:30.622Z,6.80
2018-12-23T14:32:11.574Z,6.80
2018-12-23T14:34:53.282Z,6.80
2018-12-23T14:37:35.137Z,6.80
2018-12-23T14:40:16.051Z,6.80
2018-12-23T14:42:57.372Z,6.80
2018-12-23T14:45:39.055Z,6.90
2018-12-23T14:48:20.629Z,6.80
2018-12-23T14:51:02.338Z,6.80
2018-12-23T14:53:43.963Z,6.80
2018-12-23T14:56:24.928Z,6.80
2018-12-23T14:59:05.965Z,6.90
2018-12-23T15:01:47.479Z,6.90
2018-12-23T15:04:28.703Z,6.90
2018-12-23T15:07:09.682Z,6.90
2018-12-23T15:09:50.575Z,6.80
2018-12-23T15:12:31.602Z,6.80
2018-12-23T15:15:13.244Z,6.90
2018-12-23T15:17:54.126Z,6.90
2018-12-23T15:20:35.169Z,6.90
2018-12-23T15:23:16.130Z,6.90
2018-12-23T15:25:57.362Z,6.90
2018-12-23T15:28:38.638Z,7.00
2018-12-23T15:31:20.452Z,7.10
2018-12-23T15:34:01.679Z,7.10
2018-12-23T15:36:42.573Z,7.10
2018-12-23T15:39:23.650Z,7.20
2018-12-23T15:42:04.550Z,7.20
2018-12-23T15:44:45.245Z,7.20
2018-12-23T15:47:26.776Z,7.20
2018-12-23T15:50:07.994Z,7.10
2018-12-23T15:52:48.815Z,7.10
2018-12-23T15:55:30.563Z,7.10
2018-12-23T15:58:11.502Z,7.10
2018-12-23T16:00:53.220Z,7.10
2018-12-23T16:03:34.505Z,7.10
2018-12-23T16:06:15.479Z,7.10
2018-12-23T16:08:56.620Z,7.20
2018-12-23T16:11:37.710Z,7.20
2018-12-23T16:14:18.882Z,7.20
2018-12-23T16:17:00.001Z,7.30
2018-12-23T16:19:41.310Z,7.30
2018-12-23T16:22:22.967Z,7.20
2018-12-23T16:25:03.737Z,7.20
2018-12-23T16:27:44.625Z,7.30
2018-12-23T16:30:26.370Z,7.30
2018-12-23T16:33:07.995Z,7.20
2018-12-23T16:35:49.013Z,7.30
2018-12-23T16:38:29.678Z,7.30
2018-12-23T16:41:10.877Z,7.30
2018-12-23T16:43:52.591Z,7.30
2018-12-23T16:46:33.948Z,7.20
2018-12-23T16:49:14.793Z,7.20
2018-12-23T16:51:55.670Z,7.20
2018-12-23T16:54:37.370Z,7.20
2018-12-23T16:57:19.183Z,7.20
2018-12-23T17:00:00.922Z,7.20
2018-12-23T17:02:42.101Z,7.20
2018-12-23T17:05:23.401Z,7.10
2018-12-23T17:08:05.023Z,7.10
2018-12-23T17:10:46.630Z,7.10
2018-12-23T17:13:27.902Z,7.10
2018-12-23T17:16:08.943Z,7.10
2018-12-23T17:18:50.326Z,7.20
2018-12-23T17:21:31.675Z,7.20
2018-12-23T17:24:13.367Z,7.20
2018-12-23T17:26:54.506Z,7.30
2018-12-23T17:29:35.760Z,7.20
2018-12-23T17:32:16.990Z,7.20
2018-12-23T17:34:58.727Z,7.20
2018-12-23T17:37:39.769Z,7.20
2018-12-23T17:40:21.409Z,7.20
2018-12-23T17:43:02.236Z,7.20
2018-12-23T17:45:44.315Z,7.20
2018-12-23T17:48:25.861Z,7.20
2018-12-23T17:51:06.965Z,7.20
2018-12-23T17:53:48.790Z,7.20
2018-12-23T17:56:30.374Z,7.20
2018-12-23T17:59:11.158Z,7.20
2018-12-23T18:01:52.321Z,7.20
2018-12-23T18:04:33.917Z,7.20
2018-12-23T18:07:14.751Z,7.20
2018-12-23T18:09:55.630Z,7.20
2018-12-23T18:12:37.052Z,7.20
2018-12-23T18:15:18.067Z,7.20
2018-12-23T18:17:59.130Z,7.20
2018-12-23T18:20:40.250Z,7.10
2018-12-23T18:23:21.736Z,7.10
2018-12-23T18:26:02.696Z,7.10
2018-12-23T18:28:43.803Z,7.20
2018-12-23T18:31:24.645Z,7.10
2018-12-23T18:34:06.717Z,7.10
2018-12-23T18:36:48.118Z,7.10
2018-12-23T18:39:29.805Z,7.10
2018-12-23T18:42:11.164Z,7.10
2018-12-23T18:44:52.022Z,7.10
2018-12-23T18:47:33.427Z,7.00
2018-12-23T18:50:14.888Z,7.10
2018-12-23T18:52:56.145Z,7.10
2018-12-23T18:55:37.664Z,7.00
2018-12-23T18:58:19.024Z,7.10
2018-12-23T19:01:00.834Z,7.10
2018-12-23T19:03:41.707Z,7.10
2018-12-23T19:06:22.875Z,7.10
2018-12-23T19:09:05.390Z,7.00
2018-12-23T19:11:46.637Z,7.00
2018-12-23T19:14:28.221Z,7.10
2018-12-23T19:17:09.902Z,7.10
2018-12-23T19:19:51.029Z,7.10
2018-12-23T19:22:32.462Z,7.10
2018-12-23T19:25:13.974Z,7.10
2018-12-23T19:27:54.878Z,7.10
2018-12-23T19:30:36.250Z,7.20
2018-12-23T19:33:17.327Z,7.10
2018-12-23T19:35:58.326Z,7.10
2018-12-23T19:38:40.062Z,7.10
2018-12-23T19:41:21.738Z,7.20
2018-12-23T19:44:02.833Z,7.10
2018-12-23T19:46:44.024Z,7.10
2018-12-23T19:49:24.853Z,7.10
2018-12-23T19:52:05.857Z,7.10
2018-12-23T19:54:47.517Z,7.00
2018-12-23T19:57:28.553Z,6.90
2018-12-23T20:00:09.433Z,7.00
2018-12-23T20:02:50.549Z,7.00
2018-12-23T20:05:31.474Z,7.00
2018-12-23T20:08:12.301Z,7.00
2018-12-23T20:10:58.968Z,7.00
2018-12-23T20:13:37.030Z,7.00
2018-12-23T20:16:18.002Z,6.90
2018-12-23T20:19:01.086Z,7.00
2018-12-23T20:21:42.467Z,7.00
2018-12-23T20:24:23.365Z,7.00
2018-12-23T20:27:04.705Z,7.00
2018-12-23T20:29:45.537Z,6.90
2018-12-23T20:32:26.450Z,6.90
2018-12-23T20:35:07.591Z,6.90
2018-12-23T20:37:48.770Z,6.90
2018-12-23T20:40:30.365Z,6.80
2018-12-23T20:43:11.307Z,6.70
2018-12-23T20:45:52.104Z,6.70
2018-12-23T20:48:33.157Z,6.70
2018-12-23T20:51:14.102Z,6.70
2018-12-23T20:53:55.101Z,6.70
2018-12-23T20:56:36.718Z,6.70
2018-12-23T20:59:17.869Z,6.70
2018-12-23T21:01:58.778Z,6.70
2018-12-23T21:04:39.681Z,6.70
2018-12-23T21:07:20.791Z,6.70
2018-12-23T21:10:01.842Z,6.80
2018-12-23T21:12:43.555Z,6.70
2018-12-23T21:15:24.634Z,6.70
2018-12-23T21:18:05.592Z,6.70
2018-12-23T21:20:46.894Z,6.70
2018-12-23T21:23:27.824Z,6.70
2018-12-23T21:26:08.767Z,6.70
2018-12-23T21:28:49.950Z,6.70
2018-12-23T21:31:31.430Z,6.70
2018-12-23T21:34:12.870Z,6.70
2018-12-23T21:36:53.762Z,6.70
2018-12-23T21:39:34.663Z,6.70
2018-12-23T21:42:16.329Z,6.60
2018-12-23T21:44:57.905Z,6.70
2018-12-23T21:47:39.129Z,6.60
2018-12-23T21:50:19.932Z,6.50
2018-12-23T21:53:00.738Z,6.60
2018-12-23T21:55:42.258Z,6.60
2018-12-23T21:58:23.309Z,6.60
2018-12-23T22:01:04.868Z,6.60
2018-12-23T22:03:46.102Z,6.60
2018-12-23T22:06:27.641Z,6.60
2018-12-23T22:09:08.941Z,6.50
2018-12-23T22:11:50.462Z,6.50
2018-12-23T22:14:32.144Z,6.50
2018-12-23T22:17:14.353Z,6.40
2018-12-23T22:19:55.760Z,6.40
2018-12-23T22:22:37.469Z,6.40
2018-12-23T22:25:18.367Z,6.40
2018-12-23T22:27:59.651Z,6.40
2018-12-23T22:30:41.037Z,6.30
2018-12-23T22:33:22.446Z,6.30
2018-12-23T22:36:03.721Z,6.30
2018-12-23T22:38:44.684Z,6.30
2018-12-23T22:41:25.630Z,6.20
2018-12-23T22:44:06.575Z,6.30
2018-12-23T22:46:47.403Z,6.30
2018-12-23T22:49:28.251Z,6.30
2018-12-23T22:52:09.950Z,6.30
2018-12-23T22:54:50.918Z,6.30
2018-12-23T22:57:31.754Z,6.30
2018-12-23T23:00:13.009Z,6.30
2018-12-23T23:02:54.646Z,6.30
2018-12-23T23:05:35.748Z,6.30
2018-12-23T23:08:17.058Z,6.40
2018-12-23T23:10:58.673Z,6.40
2018-12-23T23:13:39.824Z,6.40
2018-12-23T23:16:20.719Z,6.40
2018-12-23T23:19:01.570Z,6.40
2018-12-23T23:21:42.703Z,6.30
2018-12-23T23:24:24.345Z,6.30
2018-12-23T23:27:08.052Z,6.30
2018-12-23T23:29:49.706Z,6.30
2018-12-23T23:32:30.818Z,6.20
2018-12-23T23:35:12.223Z,6.20
2018-12-23T23:37:53.134Z,6.20
2018-12-23T23:40:34.205Z,6.20
2018-12-23T23:43:15.586Z,6.20
2018-12-23T23:45:56.878Z,6.20
2018-12-23T23:48:37.982Z,6.10
2018-12-23T23:51:19.093Z,6.10
2018-12-23T23:54:00.275Z,6.10
2018-12-23T23:56:41.224Z,6.10
2018-12-23T23:59:22.301Z,6.10
